Time;durP1;ratioP1;P1;durP2;ratioP2;P2;SDS_P1;SDS_P2;PMS_P1;PMS_P2;Temp;Humidity;BMP_temperature;BMP_pressure;BME280_temperature;BME280_humidity;BME280_pressure;Samples;Min_cycle;Max_cycle;Signal;HPM_P1;HPM_P2
2022/09/01 00:02:14;;;;;;;68.50;4.80;;;20.40;1.00;;;;;;5076206;28;20405;-82
2022/09/01 00:04:43;;;;;;;67.30;4.63;;;20.30;1.00;;;;;;5057499;28;20991;-81
2022/09/01 00:07:10;;;;;;;67.90;3.70;;;20.30;1.00;;;;;;5075341;28;20931;-83
2022/09/01 00:09:37;;;;;;;67.57;3.97;;;20.20;1.00;;;;;;5057993;28;20825;-81
2022/09/01 00:12:05;;;;;;;65.83;3.50;;;20.20;1.00;;;;;;5076100;28;20401;-80
2022/09/01 00:14:35;;;;;;;66.60;3.70;;;20.20;1.00;;;;;;5058661;28;20410;-81
2022/09/01 00:17:04;;;;;;;66.27;3.50;;;20.30;1.00;;;;;;5076503;28;20453;-81
2022/09/01 00:19:32;;;;;;;67.00;4.60;;;20.20;1.00;;;;;;5076759;28;20426;-81
2022/09/01 00:22:00;;;;;;;66.80;4.20;;;20.10;1.00;;;;;;5075602;28;20438;-81
2022/09/01 00:24:26;;;;;;;66.53;3.93;;;20.00;1.00;;;;;;5075399;28;20400;-81
2022/09/01 00:26:53;;;;;;;68.50;4.53;;;20.10;1.00;;;;;;5075048;28;20426;-81
2022/09/01 00:29:19;;;;;;;65.97;3.20;;;20.10;1.00;;;;;;5075192;28;20488;-81
2022/09/01 00:31:45;;;;;;;68.30;4.20;;;20.10;1.00;;;;;;5074993;28;20408;-81
2022/09/01 00:34:11;;;;;;;66.70;4.43;;;20.10;1.00;;;;;;5058289;28;20180;-83
2022/09/01 00:36:37;;;;;;;66.53;3.80;;;20.00;1.00;;;;;;5074977;28;20459;-81
2022/09/01 00:39:05;;;;;;;66.00;3.80;;;19.90;1.00;;;;;;5075281;28;20160;-81
2022/09/01 00:41:33;;;;;;;68.60;4.40;;;19.80;1.00;;;;;;5075933;28;20559;-81
2022/09/01 00:44:05;;;;;;;66.77;4.00;;;20.00;1.00;;;;;;5077678;28;20457;-81
2022/09/01 00:46:35;;;;;;;66.10;4.17;;;20.00;1.00;;;;;;5078749;28;20517;-81
2022/09/01 00:49:04;;;;;;;67.90;4.90;;;20.10;1.00;;;;;;5079566;28;20436;-82
2022/09/01 00:51:31;;;;;;;67.87;4.00;;;20.10;1.00;;;;;;5078965;28;20430;-81
2022/09/01 00:53:59;;;;;;;66.00;4.53;;;20.10;1.00;;;;;;5079064;28;20455;-81
2022/09/01 00:56:25;;;;;;;67.90;5.37;;;20.10;1.00;;;;;;5078641;28;20441;-81
2022/09/01 00:58:52;;;;;;;66.37;4.57;;;20.00;1.00;;;;;;5079170;28;20459;-81
2022/09/01 01:01:18;;;;;;;67.37;5.50;;;20.10;1.00;;;;;;5078605;28;20416;-81
2022/09/01 01:03:45;;;;;;;66.40;4.50;;;20.10;1.00;;;;;;5060539;28;20489;-81
2022/09/01 01:06:14;;;;;;;67.00;5.37;;;20.30;1.00;;;;;;5060575;28;20409;-80
2022/09/01 01:08:48;;;;;;;67.27;4.70;;;20.10;1.00;;;;;;5079271;28;20427;-81
2022/09/01 01:11:16;;;;;;;66.97;4.03;;;20.00;1.00;;;;;;5079467;28;20379;-81
2022/09/01 01:14:10;;;;;;;67.30;4.63;;;20.00;1.00;;;;;;5078551;28;20407;-80
2022/09/01 01:16:43;;;;;;;67.90;5.43;;;20.00;1.00;;;;;;5060037;28;20928;-80
2022/09/01 01:23:07;;;;;;;67.67;5.53;;;20.00;1.50;;;;;;5078098;28;20426;-82
2022/09/01 01:25:53;;;;;;;67.27;4.60;;;20.00;1.20;;;;;;5077482;28;20419;-82
2022/09/01 01:28:30;;;;;;;67.40;5.80;;;20.00;2.10;;;;;;5077269;28;20469;-80
2022/09/01 01:31:04;;;;;;;66.77;5.33;;;20.00;2.50;;;;;;5077691;28;20387;-80
2022/09/01 01:33:43;;;;;;;69.20;5.67;;;20.00;2.00;;;;;;5059684;28;20480;-79
2022/09/01 01:36:16;;;;;;;66.40;4.63;;;20.10;2.10;;;;;;5077819;28;20889;-80
2022/09/01 01:38:45;;;;;;;68.00;5.87;;;20.00;2.30;;;;;;5077124;28;20402;-80
2022/09/01 01:41:12;;;;;;;66.20;5.60;;;20.00;2.30;;;;;;5059681;28;20498;-79
2022/09/01 01:43:39;;;;;;;67.50;5.90;;;20.00;2.70;;;;;;5077363;28;20408;-79
2022/09/01 01:46:07;;;;;;;68.57;7.67;;;19.80;4.10;;;;;;5077041;28;20423;-79
2022/09/01 01:48:36;;;;;;;67.13;6.43;;;19.80;6.70;;;;;;5077235;28;20493;-80
2022/09/01 01:51:03;;;;;;;68.20;7.83;;;19.80;7.60;;;;;;5059158;28;20428;-79
2022/09/01 01:53:29;;;;;;;66.90;6.27;;;19.80;7.80;;;;;;5059409;28;20413;-80
2022/09/01 01:55:57;;;;;;;66.80;6.90;;;19.80;8.10;;;;;;5077223;28;20406;-80
2022/09/01 01:58:24;;;;;;;68.20;7.77;;;19.70;8.60;;;;;;5076852;28;20420;-79
2022/09/01 02:00:53;;;;;;;68.47;6.60;;;19.80;9.10;;;;;;5059057;28;20409;-80
2022/09/01 02:03:21;;;;;;;67.37;7.90;;;19.70;9.70;;;;;;5077155;28;20379;-80
2022/09/01 02:05:49;;;;;;;67.67;7.87;;;19.60;10.60;;;;;;5058605;28;20495;-80
2022/09/01 02:08:20;;;;;;;67.50;7.33;;;19.60;11.50;;;;;;5076848;28;20419;-80
2022/09/01 02:10:49;;;;;;;67.83;6.97;;;19.60;12.80;;;;;;5076782;28;20407;-79
2022/09/01 02:13:17;;;;;;;67.80;6.70;;;19.60;14.10;;;;;;5076397;28;20397;-80
2022/09/01 02:15:53;;;;;;;67.13;6.20;;;19.60;14.90;;;;;;5059173;28;20476;-80
2022/09/01 02:18:25;;;;;;;71.33;6.90;;;19.50;15.50;;;;;;5076569;28;20447;-81
2022/09/01 02:20:51;;;;;;;68.77;6.80;;;19.50;16.10;;;;;;5058792;28;20434;-80
2022/09/01 02:23:22;;;;;;;69.07;6.63;;;19.40;17.80;;;;;;5058692;28;20417;-80
2022/09/01 02:25:50;;;;;;;68.27;6.50;;;19.40;17.80;;;;;;5076982;28;20374;-80
2022/09/01 02:28:19;;;;;;;67.60;6.00;;;19.30;19.90;;;;;;5076207;28;20422;-80
2022/09/01 02:30:48;;;;;;;66.83;6.60;;;19.40;20.30;;;;;;5075983;28;20399;-80
2022/09/01 02:33:18;;;;;;;67.87;6.43;;;19.40;20.70;;;;;;5075952;28;20421;-79
2022/09/01 02:35:45;;;;;;;67.43;6.57;;;19.40;21.10;;;;;;5058662;28;20423;-80
2022/09/01 02:38:12;;;;;;;70.07;6.80;;;19.40;22.00;;;;;;5076054;28;20977;-80
2022/09/01 02:40:44;;;;;;;70.10;6.90;;;19.30;22.80;;;;;;5057984;28;21000;-81
2022/09/01 02:43:10;;;;;;;66.40;5.57;;;19.30;23.00;;;;;;5075959;28;20383;-81
2022/09/01 02:45:37;;;;;;;67.13;5.57;;;19.20;24.50;;;;;;5076191;28;20418;-80
2022/09/01 02:48:09;;;;;;;71.80;6.07;;;19.20;24.80;;;;;;5075985;28;20764;-80
2022/09/01 02:50:40;;;;;;;66.37;6.00;;;19.20;24.50;;;;;;5057835;28;20399;-80
2022/09/01 02:53:08;;;;;;;68.57;6.57;;;19.20;24.50;;;;;;5076469;28;20480;-81
2022/09/01 02:55:39;;;;;;;69.30;5.90;;;19.20;26.30;;;;;;5057850;28;20436;-81
2022/09/01 02:58:09;;;;;;;68.23;5.60;;;19.20;26.30;;;;;;5075703;28;20881;-81
2022/09/01 03:00:38;;;;;;;66.60;6.10;;;19.20;26.90;;;;;;5076394;28;20389;-80
2022/09/01 03:03:05;;;;;;;68.07;6.60;;;19.10;27.30;;;;;;5058003;28;20833;-81
2022/09/01 03:05:33;;;;;;;66.97;6.07;;;19.00;28.10;;;;;;5057953;28;20411;-81
2022/09/01 03:08:06;;;;;;;67.60;6.80;;;18.90;29.60;;;;;;5057536;28;20430;-81
2022/09/01 03:10:35;;;;;;;68.57;6.30;;;19.00;29.60;;;;;;5075623;28;20412;-81
2022/09/01 03:13:08;;;;;;;68.77;6.70;;;18.90;30.30;;;;;;5075478;28;20488;-80
2022/09/01 03:15:35;;;;;;;67.77;7.13;;;18.90;31.00;;;;;;5057891;28;20412;-81
2022/09/01 03:18:02;;;;;;;69.20;6.20;;;18.90;31.90;;;;;;5075616;28;20457;-80
2022/09/01 03:20:32;;;;;;;67.30;7.10;;;18.80;34.70;;;;;;5057632;28;20406;-81
2022/09/01 03:23:03;;;;;;;66.97;7.47;;;18.80;35.60;;;;;;5057544;28;20944;-80
2022/09/01 03:25:30;;;;;;;67.47;7.00;;;18.80;36.80;;;;;;5075102;28;20386;-81
2022/09/01 03:28:01;;;;;;;67.50;7.63;;;18.80;37.50;;;;;;5074986;28;20428;-81
2022/09/01 03:30:32;;;;;;;68.17;8.00;;;18.80;37.30;;;;;;5075031;28;20379;-81
2022/09/01 03:32:59;;;;;;;66.27;6.77;;;18.80;38.40;;;;;;5075300;28;20429;-81
2022/09/01 03:35:27;;;;;;;67.87;6.90;;;18.80;38.40;;;;;;5075837;28;20947;-82
2022/09/01 03:37:57;;;;;;;67.43;7.77;;;18.70;40.20;;;;;;5075533;28;20761;-81
2022/09/01 03:40:26;;;;;;;68.60;7.50;;;18.70;40.00;;;;;;5056905;28;20406;-81
2022/09/01 03:42:54;;;;;;;66.90;8.13;;;18.70;40.90;;;;;;5075374;28;20394;-81
2022/09/01 03:45:20;;;;;;;67.30;7.20;;;18.60;42.40;;;;;;5075578;28;20494;-80
2022/09/01 03:47:46;;;;;;;67.47;7.57;;;18.60;41.20;;;;;;5074809;28;20433;-81
2022/09/01 03:50:21;;;;;;;67.17;7.70;;;18.60;42.50;;;;;;5075151;28;20412;-81
2022/09/01 03:52:52;;;;;;;67.77;8.10;;;18.50;43.40;;;;;;5075698;28;20386;-82
2022/09/01 03:55:26;;;;;;;67.30;8.73;;;18.40;45.10;;;;;;5075106;28;20390;-81
2022/09/01 03:57:59;;;;;;;68.17;8.40;;;18.40;45.80;;;;;;5056710;28;20453;-81
2022/09/01 04:00:28;;;;;;;66.80;8.60;;;18.40;47.10;;;;;;5056942;28;20399;-81
2022/09/01 04:02:57;;;;;;;67.13;8.23;;;18.40;47.00;;;;;;5074468;28;20444;-81
2022/09/01 04:05:28;;;;;;;67.70;8.80;;;18.40;46.20;;;;;;5057180;28;20403;-81
2022/09/01 04:08:02;;;;;;;70.97;9.97;;;18.40;46.40;;;;;;5074552;28;20859;-81
2022/09/01 04:10:31;;;;;;;67.07;9.07;;;18.40;46.50;;;;;;5074679;28;20934;-81
2022/09/01 04:12:58;;;;;;;72.30;10.23;;;18.30;47.70;;;;;;5075314;28;20445;-81
2022/09/01 04:15:25;;;;;;;67.73;8.67;;;18.30;47.10;;;;;;5074868;28;20849;-81
2022/09/01 04:18:08;;;;;;;68.70;7.80;;;18.20;47.50;;;;;;5073628;28;20450;-81
2022/09/01 04:20:47;;;;;;;67.20;8.70;;;18.20;46.50;;;;;;5074977;28;20747;-81
2022/09/01 04:23:28;;;;;;;67.50;9.87;;;18.10;47.80;;;;;;5074900;28;20379;-81
2022/09/01 04:26:07;;;;;;;67.30;9.70;;;18.10;48.00;;;;;;5041269;28;20402;-82
2022/09/01 04:28:38;;;;;;;70.20;11.50;;;18.00;48.30;;;;;;5056666;28;20974;-82
2022/09/01 04:31:08;;;;;;;67.93;10.10;;;18.00;48.90;;;;;;5074362;28;20398;-82
2022/09/01 04:33:38;;;;;;;69.07;11.10;;;18.00;48.70;;;;;;5145237;22;20611;-82
2022/09/01 04:36:18;;;;;;;68.97;10.50;;;17.90;47.90;;;;;;5075968;28;20375;-82
2022/09/01 04:38:45;;;;;;;70.40;12.57;;;17.90;49.70;;;;;;5056842;28;20382;-83
2022/09/01 04:41:16;;;;;;;71.50;11.00;;;17.90;49.50;;;;;;5037327;28;20414;-82
2022/09/01 04:43:46;;;;;;;69.27;13.03;;;17.80;51.30;;;;;;5055633;28;20395;-82
2022/09/01 04:46:13;;;;;;;69.10;14.20;;;17.70;52.00;;;;;;5037295;28;20419;-82
2022/09/01 04:48:42;;;;;;;70.07;13.30;;;17.70;53.60;;;;;;5057429;28;20402;-82
2022/09/01 04:51:09;;;;;;;69.90;13.27;;;17.60;55.00;;;;;;5055629;28;20395;-82
2022/09/01 04:53:39;;;;;;;73.20;18.77;;;17.60;54.90;;;;;;5039319;28;20755;-83
2022/09/01 04:56:08;;;;;;;71.10;14.03;;;17.60;53.90;;;;;;5055306;28;20386;-83
2022/09/01 04:58:35;;;;;;;72.13;14.70;;;17.70;54.20;;;;;;5055656;28;20407;-83
2022/09/01 05:01:06;;;;;;;71.40;16.60;;;17.70;55.20;;;;;;5038062;28;20756;-83
2022/09/01 05:03:32;;;;;;;69.97;15.10;;;17.70;55.00;;;;;;5056273;28;20368;-83
2022/09/01 05:06:02;;;;;;;70.00;15.70;;;17.70;56.00;;;;;;5056012;28;20418;-83
2022/09/01 05:08:28;;;;;;;73.27;17.23;;;17.60;56.50;;;;;;5054819;28;20443;-83
2022/09/01 05:10:55;;;;;;;70.97;16.13;;;17.60;56.80;;;;;;5055328;28;20453;-82
2022/09/01 05:13:22;;;;;;;72.97;16.47;;;17.60;56.30;;;;;;5037342;28;20407;-83
2022/09/01 05:16:00;;;;;;;71.83;17.67;;;17.60;57.20;;;;;;5056548;28;20415;-82
2022/09/01 05:18:27;;;;;;;78.80;20.33;;;17.50;59.30;;;;;;5054899;28;20460;-82
2022/09/01 05:20:53;;;;;;;74.53;20.87;;;17.50;61.60;;;;;;5055385;28;20412;-83
2022/09/01 05:23:20;;;;;;;72.33;17.57;;;17.50;61.20;;;;;;5055060;28;20395;-82
2022/09/01 05:25:50;;;;;;;70.77;17.13;;;17.70;58.10;;;;;;5055374;28;20407;-82
2022/09/01 05:28:17;;;;;;;73.67;21.70;;;17.60;61.00;;;;;;5040529;28;20435;-83
2022/09/01 05:30:46;;;;;;;74.37;20.90;;;17.60;61.70;;;;;;5053519;28;20411;-83
2022/09/01 05:33:15;;;;;;;73.30;21.07;;;17.60;62.80;;;;;;5067008;28;20411;-83
2022/09/01 05:35:51;;;;;;;72.90;20.60;;;17.60;63.20;;;;;;5048097;28;20454;-83
2022/09/01 05:38:17;;;;;;;71.47;20.20;;;17.60;65.20;;;;;;5069611;28;20454;-83
2022/09/01 05:40:43;;;;;;;73.27;20.43;;;17.60;64.80;;;;;;5066467;28;20441;-83
2022/09/01 05:43:12;;;;;;;71.10;19.50;;;17.60;66.90;;;;;;5065925;28;20395;-83
2022/09/01 05:45:42;;;;;;;72.10;20.63;;;17.60;67.70;;;;;;5066301;28;20403;-83
2022/09/01 05:48:16;;;;;;;75.20;23.10;;;17.60;69.70;;;;;;5048780;28;20983;-83
2022/09/01 05:50:42;;;;;;;70.30;18.20;;;17.70;67.70;;;;;;5069653;28;20380;-83
2022/09/01 05:53:14;;;;;;;71.90;21.80;;;17.80;67.80;;;;;;5069030;28;20438;-83
2022/09/01 05:55:42;;;;;;;72.80;19.63;;;17.80;69.40;;;;;;5069376;28;20152;-83
2022/09/01 05:58:12;;;;;;;71.43;18.10;;;17.80;68.80;;;;;;5069495;28;20473;-83
2022/09/01 06:00:45;;;;;;;69.53;16.27;;;17.80;71.50;;;;;;5066509;28;20463;-83
2022/09/01 06:03:13;;;;;;;70.93;16.87;;;17.80;72.70;;;;;;5067094;28;20392;-83
2022/09/01 06:05:39;;;;;;;69.70;15.67;;;17.90;71.90;;;;;;5066583;28;20416;-83
2022/09/01 06:08:06;;;;;;;73.00;18.80;;;17.90;72.30;;;;;;5067106;28;20462;-83
2022/09/01 06:10:38;;;;;;;72.60;19.30;;;17.90;74.90;;;;;;5066360;28;20775;-83
2022/09/01 06:13:05;;;;;;;70.90;17.97;;;17.90;76.60;;;;;;5066513;28;20415;-83
2022/09/01 06:15:32;;;;;;;70.50;16.30;;;17.90;76.50;;;;;;5068768;28;20414;-83
2022/09/01 06:17:59;;;;;;;72.20;18.90;;;17.90;78.60;;;;;;5064922;28;20837;-83
2022/09/01 06:20:26;;;;;;;70.00;18.90;;;17.80;74.80;;;;;;5065601;28;20407;-84
2022/09/01 06:22:52;;;;;;;71.70;19.90;;;17.80;75.10;;;;;;5065160;28;20411;-83
2022/09/01 06:25:19;;;;;;;72.30;19.13;;;17.80;72.30;;;;;;5067313;28;20411;-83
2022/09/01 06:27:46;;;;;;;71.97;18.20;;;17.80;71.70;;;;;;5047219;28;20450;-83
2022/09/01 06:30:19;;;;;;;69.73;17.73;;;17.90;71.80;;;;;;5065659;28;20513;-83
2022/09/01 06:32:45;;;;;;;68.77;14.80;;;18.00;68.10;;;;;;5064648;28;20388;-83
2022/09/01 06:35:14;;;;;;;69.57;15.37;;;18.10;68.10;;;;;;5064027;28;20387;-82
2022/09/01 06:37:44;;;;;;;68.07;9.17;;;18.20;64.50;;;;;;5063380;28;20427;-83
2022/09/01 06:40:18;;;;;;;68.33;10.80;;;18.10;54.80;;;;;;5064335;28;20759;-83
2022/09/01 06:42:46;;;;;;;67.03;8.00;;;18.10;56.00;;;;;;5065337;28;20390;-83
2022/09/01 06:45:13;;;;;;;70.30;7.87;;;18.10;47.80;;;;;;5069322;28;20411;-83
2022/09/01 06:47:43;;;;;;;67.97;10.27;;;18.00;49.80;;;;;;5066165;28;20459;-82
2022/09/01 06:50:11;;;;;;;66.97;9.70;;;18.10;53.60;;;;;;5068092;28;20414;-82
2022/09/01 06:52:39;;;;;;;66.20;6.13;;;18.20;52.10;;;;;;5069426;28;20430;-82
2022/09/01 06:55:05;;;;;;;68.30;6.00;;;18.20;40.70;;;;;;5057889;28;20407;-82
2022/09/01 06:57:31;;;;;;;65.60;5.20;;;18.20;40.90;;;;;;5057511;28;20431;-82
2022/09/01 06:59:56;;;;;;;69.50;5.07;;;18.20;41.50;;;;;;5060581;28;20925;-82
2022/09/01 07:02:23;;;;;;;66.07;6.40;;;18.20;32.10;;;;;;5059191;28;20169;-82
2022/09/01 07:04:50;;;;;;;67.63;5.90;;;18.30;34.90;;;;;;5059328;28;20214;-82
2022/09/01 07:07:16;;;;;;;67.67;5.90;;;18.30;33.30;;;;;;5059096;28;20455;-82
2022/09/01 07:09:42;;;;;;;68.57;6.70;;;18.40;33.60;;;;;;5059428;28;20409;-82
2022/09/01 07:12:08;;;;;;;66.60;6.27;;;18.40;27.60;;;;;;5061012;28;20165;-82
2022/09/01 07:14:35;;;;;;;69.20;7.00;;;18.50;29.50;;;;;;5064812;28;20434;-82
2022/09/01 07:17:00;;;;;;;72.77;7.30;;;18.50;25.00;;;;;;5061252;28;20189;-82
2022/09/01 07:19:26;;;;;;;69.40;7.53;;;18.60;19.90;;;;;;5063244;28;20447;-82
2022/09/01 07:21:52;;;;;;;68.13;7.33;;;18.50;19.90;;;;;;5063205;28;20200;-82
2022/09/01 07:24:19;;;;;;;69.13;8.27;;;18.60;17.80;;;;;;5063539;28;20607;-82
2022/09/01 07:26:49;;;;;;;66.40;6.00;;;18.60;20.30;;;;;;5062242;28;20453;-82
2022/09/01 07:29:18;;;;;;;69.87;8.67;;;18.60;22.10;;;;;;5062728;28;20404;-82
2022/09/01 07:31:44;;;;;;;66.97;6.73;;;18.60;19.60;;;;;;5063381;28;20403;-82
2022/09/01 07:34:13;;;;;;;69.90;7.20;;;18.70;21.00;;;;;;5060790;28;20512;-82
2022/09/01 07:36:40;;;;;;;68.90;6.70;;;18.70;17.20;;;;;;5061125;28;20435;-82
2022/09/01 07:39:07;;;;;;;73.40;6.00;;;18.70;18.00;;;;;;5061414;28;20445;-82
2022/09/01 07:41:33;;;;;;;66.50;6.60;;;18.80;18.60;;;;;;5061799;28;20411;-82
2022/09/01 07:44:01;;;;;;;67.67;8.10;;;18.80;14.90;;;;;;5062320;28;20810;-82
2022/09/01 07:46:31;;;;;;;67.33;7.20;;;18.90;12.50;;;;;;5063860;28;20443;-82
2022/09/01 07:49:00;;;;;;;68.10;6.60;;;18.90;14.30;;;;;;5060983;28;20396;-82
2022/09/01 07:51:27;;;;;;;67.47;6.80;;;19.00;14.70;;;;;;5059615;28;20414;-82
2022/09/01 07:53:53;;;;;;;67.90;6.80;;;19.00;9.50;;;;;;5059336;28;20453;-82
2022/09/01 07:56:22;;;;;;;67.33;6.17;;;18.90;8.20;;;;;;5061573;28;20391;-82
2022/09/01 07:58:49;;;;;;;66.50;7.60;;;19.00;11.70;;;;;;5061640;28;20417;-82
2022/09/01 08:01:21;;;;;;;67.07;7.27;;;19.00;9.60;;;;;;5062627;28;20933;-82
2022/09/01 08:03:50;;;;;;;68.67;6.67;;;19.10;8.80;;;;;;5060451;28;20783;-82
2022/09/01 08:06:18;;;;;;;67.53;8.20;;;19.20;12.10;;;;;;5055142;28;20396;-82
2022/09/01 08:08:44;;;;;;;66.63;5.17;;;19.20;9.50;;;;;;5054812;28;20406;-82
2022/09/01 08:11:16;;;;;;;66.57;6.17;;;19.30;10.50;;;;;;5057182;28;20399;-83
2022/09/01 08:13:42;;;;;;;67.27;7.33;;;19.40;6.00;;;;;;5055766;28;20383;-82
2022/09/01 08:16:09;;;;;;;67.63;7.17;;;19.40;4.90;;;;;;5056477;28;20399;-82
2022/09/01 08:18:35;;;;;;;69.53;8.17;;;19.50;5.40;;;;;;5054620;28;20176;-82
2022/09/01 08:21:06;;;;;;;68.00;8.00;;;19.50;3.80;;;;;;5053499;28;20479;-82
2022/09/01 08:23:31;;;;;;;69.43;7.10;;;19.50;1.00;;;;;;5058134;28;20387;-82
2022/09/01 08:25:57;;;;;;;67.30;6.60;;;19.60;1.70;;;;;;5056844;28;20461;-82
2022/09/01 08:28:23;;;;;;;72.03;5.90;;;19.60;1.30;;;;;;5056294;28;20193;-82
2022/09/01 08:30:48;;;;;;;67.87;7.07;;;19.70;2.30;;;;;;5056663;28;20195;-82
2022/09/01 08:33:14;;;;;;;67.97;7.87;;;19.70;1.00;;;;;;5058824;28;20705;-82
2022/09/01 08:35:42;;;;;;;67.83;7.03;;;19.80;1.00;;;;;;5057020;28;20164;-82
2022/09/01 08:38:08;;;;;;;68.67;7.07;;;19.80;1.00;;;;;;5058980;28;20434;-82
2022/09/01 08:40:35;;;;;;;68.20;6.70;;;19.80;1.00;;;;;;5057035;28;20919;-82
2022/09/01 08:43:17;;;;;;;71.40;7.77;;;19.90;1.00;;;;;;5058579;28;20406;-82
2022/09/01 08:45:58;;;;;;;72.33;8.03;;;20.00;1.00;;;;;;5059279;28;20886;-82
2022/09/01 08:48:35;;;;;;;68.00;6.50;;;20.00;1.00;;;;;;5053556;28;20447;-82
2022/09/01 08:51:32;;;;;;;67.40;6.67;;;20.10;1.00;;;;;;5054366;28;20380;-82
2022/09/01 08:54:10;;;;;;;67.77;7.37;;;20.20;1.00;;;;;;5056366;28;20422;-82
2022/09/01 08:56:37;;;;;;;68.47;8.17;;;20.10;1.00;;;;;;5056327;28;20423;-82
2022/09/01 08:59:05;;;;;;;67.20;6.70;;;20.20;1.00;;;;;;5058213;28;20420;-82
2022/09/01 09:01:50;;;;;;;68.50;6.20;;;20.30;1.00;;;;;;5057905;28;20407;-82
2022/09/01 09:04:53;;;;;;;67.30;6.80;;;20.40;1.00;;;;;;5057601;28;20412;-82
2022/09/01 09:07:37;;;;;;;67.27;6.87;;;20.40;1.00;;;;;;5043082;28;20972;-82
2022/09/01 09:10:29;;;;;;;69.53;5.97;;;20.50;1.00;;;;;;5061628;28;20412;-82
2022/09/01 09:13:02;;;;;;;71.37;6.20;;;20.50;1.00;;;;;;5060858;28;20742;-82
2022/09/01 09:15:46;;;;;;;66.60;4.83;;;20.60;1.00;;;;;;5060826;28;20425;-82
2022/09/01 09:18:30;;;;;;;66.30;3.80;;;20.70;1.00;;;;;;5060108;28;20466;-82
2022/09/01 09:21:05;;;;;;;69.80;3.83;;;20.90;1.00;;;;;;5061051;28;20413;-82
2022/09/01 09:23:38;;;;;;;69.93;3.13;;;21.00;1.00;;;;;;5043061;28;20405;-82
2022/09/01 09:26:03;;;;;;;68.20;3.50;;;21.10;1.00;;;;;;5060517;28;20394;-82
2022/09/01 09:28:29;;;;;;;65.50;3.07;;;21.20;1.00;;;;;;5059146;28;20856;-82
2022/09/01 09:31:31;;;;;;;67.10;3.47;;;21.20;1.00;;;;;;5060270;28;20220;-82
2022/09/01 09:33:58;;;;;;;71.10;3.70;;;21.30;1.00;;;;;;5037123;28;20212;-82
2022/09/01 09:36:33;;;;;;;67.07;3.07;;;21.40;1.00;;;;;;5061009;28;20409;-82
2022/09/01 09:39:10;;;;;;;71.80;3.20;;;21.50;1.00;;;;;;5062159;28;20407;-82
2022/09/01 09:41:37;;;;;;;66.60;3.23;;;21.70;1.00;;;;;;5061614;28;20415;-82
2022/09/01 09:44:29;;;;;;;66.50;3.00;;;21.80;1.00;;;;;;5060800;28;20399;-82
2022/09/01 09:46:56;;;;;;;65.80;3.17;;;21.90;1.00;;;;;;5059417;28;20441;-82
2022/09/01 09:49:32;;;;;;;65.27;2.93;;;22.00;1.00;;;;;;5059084;28;20403;-82
2022/09/01 09:52:07;;;;;;;65.47;2.70;;;22.20;1.00;;;;;;5040946;28;20460;-82
2022/09/01 09:54:34;;;;;;;67.63;3.10;;;22.40;1.00;;;;;;5059776;28;20403;-82
2022/09/01 09:57:16;;;;;;;65.67;3.00;;;22.50;1.00;;;;;;5058263;28;20434;-82
2022/09/01 09:59:44;;;;;;;65.47;2.70;;;22.60;1.00;;;;;;5058424;28;20387;-82
2022/09/01 10:02:33;;;;;;;66.53;2.97;;;22.80;1.00;;;;;;5059812;28;20398;-82
2022/09/01 10:05:19;;;;;;;68.90;3.33;;;22.90;1.00;;;;;;5058134;28;20403;-82
2022/09/01 10:07:48;;;;;;;66.33;3.23;;;23.10;1.00;;;;;;5059065;28;20438;-82
2022/09/01 10:10:35;;;;;;;65.90;2.83;;;23.30;1.00;;;;;;5058175;28;20747;-82
2022/09/01 10:13:01;;;;;;;70.73;2.40;;;23.30;1.00;;;;;;5058781;28;20399;-82
2022/09/01 10:15:32;;;;;;;66.20;2.83;;;23.60;1.00;;;;;;5058044;28;20407;-82
2022/09/01 10:18:05;;;;;;;66.53;2.87;;;23.80;1.00;;;;;;5057763;28;20938;-82
2022/09/01 10:20:37;;;;;;;66.60;4.93;;;23.90;1.00;;;;;;5057329;28;20376;-82
2022/09/01 10:23:03;;;;;;;66.17;4.87;;;24.00;1.00;;;;;;5056894;28;20429;-82
2022/09/01 10:25:33;;;;;;;66.57;5.23;;;24.30;1.00;;;;;;5056532;28;20939;-82
2022/09/01 10:28:22;;;;;;;67.03;3.20;;;24.60;1.00;;;;;;5039676;28;20207;-82
2022/09/01 10:30:52;;;;;;;66.03;4.47;;;25.00;1.00;;;;;;5057582;28;20387;-82
2022/09/01 10:33:20;;;;;;;66.97;4.90;;;24.70;1.00;;;;;;5130577;22;20486;-79
2022/09/01 10:35:50;;;;;;;65.67;2.90;;;24.70;1.00;;;;;;5075404;28;20376;-79
2022/09/01 10:38:25;;;;;;;66.67;2.80;;;25.00;1.00;;;;;;5075633;28;20402;-81
2022/09/01 10:41:08;;;;;;;68.30;2.30;;;25.10;1.00;;;;;;5075826;28;20376;-79
2022/09/01 10:43:37;;;;;;;66.80;2.80;;;25.60;1.00;;;;;;5075398;28;20955;-80
2022/09/01 10:46:23;;;;;;;65.77;2.80;;;25.70;1.00;;;;;;5075372;28;20449;-78
2022/09/01 10:48:51;;;;;;;67.57;3.70;;;25.90;1.00;;;;;;5065167;28;20425;-81
2022/09/01 10:51:17;;;;;;;65.93;3.00;;;25.90;1.00;;;;;;5075531;28;20408;-81
2022/09/01 10:53:49;;;;;;;68.83;2.73;;;26.20;1.00;;;;;;5057246;28;20429;-79
2022/09/01 10:56:44;;;;;;;66.00;2.57;;;26.00;1.00;;;;;;5075274;28;20382;-80
2022/09/01 10:59:22;;;;;;;66.80;2.90;;;25.60;1.00;;;;;;5075470;28;20393;-81
2022/09/01 11:01:48;;;;;;;65.50;3.20;;;25.20;1.00;;;;;;5057564;28;20812;-79
2022/09/01 11:04:19;;;;;;;66.20;3.47;;;25.30;1.00;;;;;;5075547;28;20404;-80
2022/09/01 11:06:53;;;;;;;73.90;3.60;;;25.30;1.00;;;;;;5075168;28;20708;-79
2022/09/01 11:09:34;;;;;;;66.27;3.57;;;25.50;1.00;;;;;;5074898;28;20401;-79
2022/09/01 11:12:08;;;;;;;66.33;3.23;;;25.50;1.00;;;;;;5075633;28;20379;-79
2022/09/01 11:14:51;;;;;;;70.00;3.50;;;25.70;1.00;;;;;;5074974;28;20469;-80
2022/09/01 11:17:23;;;;;;;67.07;2.87;;;25.80;1.00;;;;;;5075106;28;20444;-80
2022/09/01 11:20:09;;;;;;;66.53;2.80;;;25.40;1.00;;;;;;5075225;28;20404;-80
2022/09/01 11:22:42;;;;;;;68.30;2.70;;;25.30;1.00;;;;;;5075298;28;20916;-79
2022/09/01 11:25:31;;;;;;;66.50;2.93;;;25.10;1.00;;;;;;5074758;28;20950;-81
2022/09/01 11:28:03;;;;;;;67.40;3.43;;;25.10;1.00;;;;;;5074297;28;20504;-79
2022/09/01 11:30:51;;;;;;;66.10;3.73;;;25.20;1.00;;;;;;5057042;28;20458;-79
2022/09/01 11:33:31;;;;;;;65.73;2.80;;;25.10;1.00;;;;;;5030240;28;1279980;-80
2022/09/01 11:36:27;;;;;;;66.40;3.30;;;25.50;1.00;;;;;;5075374;28;20415;-79
2022/09/01 11:39:12;;;;;;;66.27;3.20;;;25.80;1.00;;;;;;5075248;28;20422;-79
2022/09/01 11:42:00;;;;;;;65.60;2.97;;;26.40;1.00;;;;;;5064921;28;20758;-79
2022/09/01 11:44:37;;;;;;;67.40;3.30;;;26.30;1.00;;;;;;5075551;28;20401;-79
2022/09/01 11:47:26;;;;;;;66.07;2.57;;;26.30;1.00;;;;;;5075748;28;20632;-80
2022/09/01 11:49:58;;;;;;;66.10;2.70;;;26.20;1.00;;;;;;5075446;28;20379;-79
2022/09/01 11:52:28;;;;;;;66.00;2.63;;;26.60;1.00;;;;;;5075411;28;20854;-79
2022/09/01 11:54:54;;;;;;;67.23;2.63;;;26.40;1.00;;;;;;5075393;28;20378;-80
2022/09/01 11:57:30;;;;;;;66.50;2.60;;;25.80;1.00;;;;;;5057449;28;20464;-79
2022/09/01 11:59:59;;;;;;;65.77;2.70;;;25.20;1.00;;;;;;5075380;28;20405;-79
2022/09/01 12:02:32;;;;;;;69.53;2.80;;;25.30;1.00;;;;;;5075377;28;20402;-80
2022/09/01 12:04:59;;;;;;;66.07;3.00;;;25.40;1.00;;;;;;5074941;28;20391;-79
2022/09/01 12:07:38;;;;;;;66.27;2.90;;;25.60;1.00;;;;;;5057056;28;20483;-79
2022/09/01 12:10:12;;;;;;;67.40;3.17;;;25.80;1.00;;;;;;5057161;28;20415;-79
2022/09/01 12:12:40;;;;;;;66.47;3.00;;;25.80;1.00;;;;;;5074696;28;20428;-79
2022/09/01 12:15:25;;;;;;;64.83;3.00;;;25.40;1.00;;;;;;5074967;28;20421;-80
2022/09/01 12:17:51;;;;;;;66.10;2.93;;;25.10;1.00;;;;;;5074960;28;20541;-79
2022/09/01 12:20:31;;;;;;;65.90;3.60;;;24.80;1.00;;;;;;5075109;28;20406;-79
2022/09/01 12:22:59;;;;;;;66.40;4.00;;;24.40;1.00;;;;;;5075290;28;20392;-79
2022/09/01 12:25:33;;;;;;;66.27;3.87;;;24.50;1.00;;;;;;5074544;28;20477;-80
2022/09/01 12:28:04;;;;;;;66.20;3.90;;;24.50;1.00;;;;;;5074890;28;20425;-80
2022/09/01 12:30:38;;;;;;;67.70;5.30;;;24.20;1.00;;;;;;5074846;28;20409;-80
2022/09/01 12:33:06;;;;;;;66.43;4.53;;;24.10;1.00;;;;;;5056873;28;20809;-79
2022/09/01 12:35:32;;;;;;;67.40;5.77;;;24.10;1.00;;;;;;5074902;28;20399;-79
2022/09/01 12:38:17;;;;;;;67.10;4.50;;;24.30;1.00;;;;;;5056032;28;20446;-80
2022/09/01 12:40:44;;;;;;;66.17;4.60;;;24.60;1.00;;;;;;5074357;28;20403;-79
2022/09/01 12:43:09;;;;;;;66.80;5.00;;;24.60;1.00;;;;;;5075076;28;20399;-80
2022/09/01 12:45:47;;;;;;;67.00;5.57;;;24.40;1.00;;;;;;5074570;28;20743;-79
2022/09/01 12:48:28;;;;;;;68.87;5.50;;;24.30;1.00;;;;;;5074517;28;20199;-80
2022/09/01 12:50:56;;;;;;;66.67;5.10;;;24.20;1.00;;;;;;5056863;28;20428;-80
2022/09/01 12:53:26;;;;;;;67.23;4.37;;;24.30;1.00;;;;;;5074672;28;20398;-80
2022/09/01 12:56:20;;;;;;;67.93;5.27;;;24.50;1.00;;;;;;5056492;28;20845;-79
2022/09/01 12:58:50;;;;;;;66.90;5.10;;;24.60;1.00;;;;;;5072261;28;20419;-80
2022/09/01 13:01:29;;;;;;;67.77;5.53;;;24.70;1.00;;;;;;5074863;28;20387;-80
2022/09/01 13:04:21;;;;;;;65.97;4.23;;;25.00;1.00;;;;;;5075025;28;20765;-79
2022/09/01 13:06:48;;;;;;;67.40;4.37;;;25.60;1.00;;;;;;5056716;28;20428;-80